Time;durP1;ratioP1;P1;durP2;ratioP2;P2;SDS_P1;SDS_P2;PMS_P1;PMS_P2;Temp;Humidity;BMP_temperature;BMP_pressure;BME280_temperature;BME280_humidity;BME280_pressure;Samples;Min_cycle;Max_cycle;Signal;HPM_P1;HPM_P2
2023/05/14 00:02:02;;;;;;;9.30;7.10;;;;;;;8.00;69.73;101100.63;105656;1253;83312;-47
2023/05/14 00:04:31;;;;;;;10.40;6.80;;;;;;;7.96;69.62;101099.45;105650;1253;73737;-46
2023/05/14 00:06:59;;;;;;;10.10;7.20;;;;;;;7.94;69.65;101097.22;105685;1253;69791;-47
2023/05/14 00:09:29;;;;;;;9.80;6.90;;;;;;;7.91;69.79;101098.83;105656;1254;69986;-48
2023/05/14 00:11:57;;;;;;;10.80;7.40;;;;;;;7.90;69.80;101093.29;105686;1250;74587;-47
2023/05/14 00:14:25;;;;;;;10.00;7.50;;;;;;;7.87;70.02;101094.55;105859;1253;83193;-48
2023/05/14 00:16:53;;;;;;;13.20;7.70;;;;;;;7.85;69.82;101092.67;105654;1253;73647;-47
2023/05/14 00:19:22;;;;;;;10.10;7.20;;;;;;;7.81;70.26;101089.23;105677;1251;70006;-46
2023/05/14 00:21:51;;;;;;;13.30;8.80;;;;;;;7.77;70.41;101090.85;105722;1253;69885;-47
2023/05/14 00:24:19;;;;;;;12.30;7.40;;;;;;;7.76;70.16;101086.70;105894;1251;74511;-48
2023/05/14 00:26:47;;;;;;;10.80;7.80;;;;;;;7.72;70.31;101084.31;105774;1251;82669;-46
2023/05/14 00:29:16;;;;;;;13.50;7.70;;;;;;;7.67;70.29;101082.65;105677;1251;72707;-47
2023/05/14 00:31:44;;;;;;;10.60;7.70;;;;;;;7.64;70.31;101082.34;105718;1253;69947;-48
2023/05/14 00:34:12;;;;;;;14.40;8.40;;;;;;;7.61;70.49;101079.08;105779;1253;69976;-46
2023/05/14 00:36:40;;;;;;;13.50;8.20;;;;;;;7.64;71.06;101079.73;105876;1253;74805;-47
2023/05/14 00:39:09;;;;;;;11.00;8.20;;;;;;;7.68;71.68;101077.42;105740;1253;83081;-48
2023/05/14 00:41:37;;;;;;;10.20;7.90;;;;;;;7.72;71.71;101074.58;105628;1257;72560;-47
2023/05/14 00:44:05;;;;;;;11.50;8.00;;;;;;;7.73;72.02;101073.17;105823;1257;69892;-47
2023/05/14 00:46:33;;;;;;;12.70;8.30;;;;;;;7.75;71.78;101073.48;105703;1251;69858;-47
2023/05/14 00:49:02;;;;;;;8.90;7.70;;;;;;;7.73;71.62;101072.13;105719;1251;74826;-47
2023/05/14 00:51:30;;;;;;;13.30;8.10;;;;;;;7.73;71.74;101074.73;105751;1253;83483;-47
2023/05/14 00:53:59;;;;;;;11.50;8.10;;;;;;;7.72;72.00;101073.89;105717;1253;72633;-48
2023/05/14 00:56:27;;;;;;;10.20;7.90;;;;;;;7.69;71.83;101074.45;105750;1254;70005;-47
2023/05/14 00:58:56;;;;;;;9.50;7.60;;;;;;;7.70;72.17;101076.36;105772;1253;70544;-47
2023/05/14 01:01:27;;;;;;;9.20;7.10;;;;;;;7.71;72.14;101076.86;105695;1255;74805;-46
2023/05/14 01:03:56;;;;;;;13.10;7.90;;;;;;;7.68;71.96;101075.15;105610;1255;83364;-47
2023/05/14 01:06:31;;;;;;;12.00;7.90;;;;;;;7.66;72.13;101074.14;105775;1253;73860;-48
2023/05/14 01:09:24;;;;;;;10.70;7.80;;;;;;;7.62;71.96;101074.21;105730;1255;69947;-47
2023/05/14 01:12:30;;;;;;;12.80;7.50;;;;;;;7.56;71.92;101076.89;105769;1257;69977;-47
2023/05/14 01:15:17;;;;;;;12.00;8.20;;;;;;;7.49;72.22;101079.42;105650;1256;74144;-47
2023/05/14 01:17:51;;;;;;;10.30;7.70;;;;;;;7.44;72.28;101077.74;105771;1253;82495;-47
2023/05/14 01:20:19;;;;;;;13.00;7.70;;;;;;;7.42;72.44;101074.11;105732;1253;74391;-48
2023/05/14 01:22:48;;;;;;;12.50;8.10;;;;;;;7.43;72.61;101072.04;105624;1257;69981;-46
2023/05/14 01:25:16;;;;;;;9.30;7.40;;;;;;;7.44;72.80;101069.57;105736;1253;69973;-46
2023/05/14 01:28:16;;;;;;;12.30;8.10;;;;;;;7.44;72.90;101069.73;105769;1253;74287;-47
2023/05/14 01:31:00;;;;;;;11.40;8.30;;;;;;;7.47;73.13;101066.95;105729;1253;82250;-47
2023/05/14 01:33:30;;;;;;;11.50;8.00;;;;;;;7.46;73.45;101068.52;105709;1254;74059;-46
2023/05/14 01:35:58;;;;;;;13.20;8.50;;;;;;;7.49;73.39;101063.95;105699;1251;69961;-47
2023/05/14 01:38:30;;;;;;;12.50;8.50;;;;;;;7.54;73.45;101065.94;105739;1254;69978;-47
2023/05/14 01:40:59;;;;;;;12.00;8.20;;;;;;;7.59;73.51;101068.16;105597;1258;74961;-47
2023/05/14 01:43:28;;;;;;;12.70;7.80;;;;;;;7.62;73.68;101067.59;105658;1252;82919;-47
2023/05/14 01:45:57;;;;;;;10.30;8.30;;;;;;;7.67;73.88;101068.21;105757;1253;72681;-47
2023/05/14 01:48:25;;;;;;;11.40;7.90;;;;;;;7.73;73.99;101067.27;105749;1253;69989;-47
2023/05/14 01:50:54;;;;;;;12.00;7.90;;;;;;;7.77;74.27;101062.50;105739;1254;69871;-47
2023/05/14 01:53:22;;;;;;;11.90;8.50;;;;;;;7.85;74.46;101060.46;105817;1254;74275;-47
2023/05/14 01:55:50;;;;;;;11.80;8.40;;;;;;;7.93;74.31;101058.78;105592;1254;83535;-47
2023/05/14 01:58:19;;;;;;;12.60;8.30;;;;;;;7.99;74.44;101053.11;105629;1256;73611;-48
2023/05/14 02:00:48;;;;;;;12.70;7.90;;;;;;;8.02;74.64;101046.80;105943;1254;69922;-46
2023/05/14 02:03:16;;;;;;;11.90;7.90;;;;;;;8.03;74.41;101049.90;105743;1252;69979;-47
2023/05/14 02:05:44;;;;;;;13.10;7.80;;;;;;;8.03;74.27;101049.38;105629;1250;73916;-47
2023/05/14 02:08:12;;;;;;;10.70;7.90;;;;;;;8.01;74.20;101046.99;105716;1257;82175;-48
2023/05/14 02:10:40;;;;;;;11.30;8.20;;;;;;;7.99;74.22;101045.81;105723;1254;72016;-47
2023/05/14 02:13:09;;;;;;;12.70;8.00;;;;;;;7.97;74.26;101046.87;105837;1254;70063;-47
2023/05/14 02:15:37;;;;;;;12.40;8.70;;;;;;;7.96;74.78;101046.55;105755;1254;70021;-47
2023/05/14 02:18:06;;;;;;;11.50;8.30;;;;;;;7.97;74.69;101044.10;105708;1255;74688;-47
2023/05/14 02:20:34;;;;;;;12.00;8.10;;;;;;;7.97;74.83;101044.42;105662;1258;82586;-47
2023/05/14 02:23:02;;;;;;;10.40;8.40;;;;;;;8.00;75.09;101046.33;105819;1254;72859;-47
2023/05/14 02:25:30;;;;;;;11.40;8.00;;;;;;;8.02;75.79;101045.23;105657;1254;69926;-49
2023/05/14 02:27:59;;;;;;;11.10;8.10;;;;;;;8.06;75.58;101046.91;105706;1253;70443;-47
2023/05/14 02:30:28;;;;;;;15.20;8.50;;;;;;;8.10;75.92;101041.61;105645;1254;74554;-47
2023/05/14 02:32:57;;;;;;;12.70;8.70;;;;;;;8.14;75.99;101042.27;105761;1251;81485;-47
2023/05/14 02:35:25;;;;;;;12.50;7.90;;;;;;;8.18;76.06;101038.70;105750;1251;72612;-48
2023/05/14 02:37:54;;;;;;;13.70;8.50;;;;;;;8.23;76.43;101037.39;105731;1254;69986;-47
2023/05/14 02:40:22;;;;;;;13.20;8.80;;;;;;;8.28;76.54;101031.74;105718;1254;70002;-47
2023/05/14 02:42:51;;;;;;;11.80;8.30;;;;;;;8.32;75.96;101033.59;105657;1255;74784;-47
2023/05/14 02:45:20;;;;;;;13.70;8.90;;;;;;;8.36;75.97;101032.81;105768;1255;83388;-45
2023/05/14 02:47:48;;;;;;;12.20;8.10;;;;;;;8.41;75.99;101035.72;105634;1254;73392;-45
2023/05/14 02:50:17;;;;;;;13.80;9.20;;;;;;;8.43;75.87;101037.44;105613;1254;70014;-45
2023/05/14 02:52:45;;;;;;;11.60;7.90;;;;;;;8.46;75.90;101036.17;105604;1256;70005;-45
2023/05/14 02:55:13;;;;;;;12.20;8.50;;;;;;;8.50;76.03;101037.48;105887;1254;74748;-45
2023/05/14 02:57:41;;;;;;;11.90;8.40;;;;;;;8.54;76.17;101034.64;105710;1257;83289;-45
2023/05/14 03:00:10;;;;;;;9.70;7.60;;;;;;;8.57;75.90;101033.00;105735;1251;72938;-44
2023/05/14 03:02:40;;;;;;;9.30;7.40;;;;;;;8.60;75.87;101033.98;105670;1251;69973;-45
2023/05/14 03:05:09;;;;;;;10.50;8.00;;;;;;;8.65;76.15;101030.23;105647;1257;69999;-45
2023/05/14 03:07:38;;;;;;;10.90;8.20;;;;;;;8.67;76.39;101032.98;105664;1253;73870;-46
2023/05/14 03:10:06;;;;;;;12.90;8.10;;;;;;;8.69;76.34;101030.15;105754;1253;83344;-46
2023/05/14 03:12:35;;;;;;;9.90;7.70;;;;;;;8.70;76.05;101030.13;105772;1254;72671;-45
2023/05/14 03:15:03;;;;;;;11.00;8.30;;;;;;;8.73;76.31;101026.96;105791;1257;70322;-45
2023/05/14 03:17:31;;;;;;;14.50;8.00;;;;;;;8.74;76.36;101026.92;105828;1251;69881;-47
2023/05/14 03:20:00;;;;;;;10.30;7.60;;;;;;;8.76;76.38;101025.48;105722;1255;73840;-51
2023/05/14 03:22:28;;;;;;;11.10;7.50;;;;;;;8.77;76.70;101028.24;105868;1254;83371;-51
2023/05/14 03:24:56;;;;;;;15.30;8.50;;;;;;;8.78;76.31;101027.88;105645;1254;73679;-46
2023/05/14 03:27:25;;;;;;;10.30;8.00;;;;;;;8.79;76.24;101029.23;105655;1257;70031;-46
2023/05/14 03:29:53;;;;;;;11.60;8.70;;;;;;;8.82;76.33;101025.04;105661;1264;70671;-47
2023/05/14 03:32:21;;;;;;;12.90;8.20;;;;;;;8.83;76.29;101025.86;105773;1258;75033;-46
2023/05/14 03:34:50;;;;;;;13.60;8.50;;;;;;;8.84;76.12;101024.98;105646;1254;83389;-46
2023/05/14 03:37:19;;;;;;;12.10;8.40;;;;;;;8.82;76.26;101024.34;105790;1257;73847;-46
2023/05/14 03:39:47;;;;;;;14.10;9.10;;;;;;;8.80;76.05;101025.94;105662;1257;69970;-46
2023/05/14 03:42:15;;;;;;;12.40;9.00;;;;;;;8.80;76.06;101026.28;105713;1253;69986;-46
2023/05/14 03:44:44;;;;;;;14.80;9.00;;;;;;;8.81;76.18;101022.27;105729;1253;74818;-46
2023/05/14 03:47:12;;;;;;;13.10;9.30;;;;;;;8.81;76.32;101020.86;105655;1256;83248;-47
2023/05/14 03:49:40;;;;;;;11.00;8.80;;;;;;;8.84;76.39;101019.77;105630;1250;72689;-46
2023/05/14 03:52:09;;;;;;;15.90;9.40;;;;;;;8.86;76.55;101017.98;105828;1257;70065;-47
2023/05/14 03:54:40;;;;;;;11.70;9.30;;;;;;;8.90;76.75;101018.41;105916;1252;69965;-47
2023/05/14 03:57:08;;;;;;;11.10;8.60;;;;;;;8.93;76.39;101018.69;105770;1254;74545;-46
2023/05/14 03:59:36;;;;;;;12.90;8.80;;;;;;;9.00;76.66;101018.40;105668;1254;82479;-47
2023/05/14 04:02:04;;;;;;;15.80;9.70;;;;;;;9.08;77.03;101017.17;105646;1253;72630;-46
2023/05/14 04:04:33;;;;;;;13.60;9.70;;;;;;;9.19;77.19;101013.30;105825;1254;69874;-46
2023/05/14 04:07:02;;;;;;;13.60;9.70;;;;;;;9.29;77.24;101014.11;105689;1251;69976;-47
2023/05/14 04:09:30;;;;;;;19.50;11.00;;;;;;;9.40;77.09;101015.80;105708;1251;74822;-47
2023/05/14 04:11:59;;;;;;;19.20;10.30;;;;;;;9.51;76.85;101018.15;105659;1254;83382;-47
2023/05/14 04:14:27;;;;;;;14.90;9.80;;;;;;;9.62;76.78;101014.59;105616;1253;73737;-47
2023/05/14 04:16:55;;;;;;;12.80;10.00;;;;;;;9.74;76.43;101015.35;105576;1264;70065;-47
2023/05/14 04:19:23;;;;;;;16.90;11.10;;;;;;;9.87;76.18;101018.01;105594;1252;70024;-47
2023/05/14 04:21:52;;;;;;;19.20;11.00;;;;;;;10.00;75.70;101017.34;105601;1254;72953;-47
2023/05/14 04:24:20;;;;;;;15.70;10.90;;;;;;;10.14;75.45;101017.17;105688;1253;83342;-48
2023/05/14 04:26:48;;;;;;;16.00;11.00;;;;;;;10.26;75.14;101018.62;105750;1251;72649;-48
2023/05/14 04:29:16;;;;;;;17.00;10.80;;;;;;;10.37;74.70;101012.94;105683;1253;70027;-47
2023/05/14 04:31:45;;;;;;;18.90;10.30;;;;;;;10.47;74.36;101014.25;105773;1251;70012;-47
2023/05/14 04:34:13;;;;;;;16.10;11.00;;;;;;;10.56;74.00;101014.17;105738;1254;74992;-48
2023/05/14 04:36:41;;;;;;;17.70;10.70;;;;;;;10.63;73.66;101011.54;105764;1254;82126;-47
2023/05/14 04:39:11;;;;;;;15.90;10.70;;;;;;;10.69;73.42;101012.08;105677;1254;74021;-48
2023/05/14 04:41:39;;;;;;;16.40;10.50;;;;;;;10.75;73.33;101011.73;105726;1259;70002;-47
2023/05/14 04:44:07;;;;;;;15.00;10.00;;;;;;;10.80;73.15;101012.13;105740;1251;69966;-47
2023/05/14 04:46:36;;;;;;;15.80;9.90;;;;;;;10.84;72.96;101010.96;105786;1254;73889;-47
2023/05/14 04:49:04;;;;;;;13.80;9.00;;;;;;;10.88;72.63;101011.55;105725;1254;81921;-47
2023/05/14 04:51:32;;;;;;;14.70;9.00;;;;;;;10.92;72.21;101009.15;105699;1251;73655;-47
2023/05/14 04:54:00;;;;;;;14.70;8.90;;;;;;;10.97;72.47;101007.62;105634;1251;69809;-47
2023/05/14 04:56:29;;;;;;;19.60;9.90;;;;;;;11.01;72.28;101007.66;105685;1254;69931;-47
2023/05/14 04:58:57;;;;;;;14.80;8.80;;;;;;;11.04;72.27;101004.77;105752;1254;74990;-48
2023/05/14 05:01:25;;;;;;;13.70;8.70;;;;;;;11.09;72.08;101004.80;105725;1254;82596;-46
2023/05/14 05:03:54;;;;;;;11.40;8.20;;;;;;;11.14;71.58;101007.65;105671;1251;72667;-46
2023/05/14 05:06:22;;;;;;;9.50;7.80;;;;;;;11.20;71.23;101009.21;105673;1252;69951;-47
2023/05/14 05:08:50;;;;;;;12.90;8.40;;;;;;;11.25;71.01;101007.99;105821;1251;70319;-46
2023/05/14 05:11:18;;;;;;;12.80;8.60;;;;;;;11.29;70.80;101007.00;105729;1251;73531;-46
2023/05/14 05:13:47;;;;;;;11.50;8.20;;;;;;;11.34;70.65;101005.48;105944;1253;83710;-46
2023/05/14 05:16:15;;;;;;;11.40;7.90;;;;;;;11.37;70.60;100999.94;105851;1252;72394;-47
2023/05/14 05:18:44;;;;;;;13.50;8.40;;;;;;;11.42;70.51;100995.06;105917;1254;70097;-46
2023/05/14 05:21:12;;;;;;;10.30;8.10;;;;;;;11.48;70.34;100991.37;105872;1253;69995;-46
2023/05/14 05:23:41;;;;;;;11.50;8.10;;;;;;;11.53;70.39;100990.69;105819;1251;74553;-50
2023/05/14 05:26:09;;;;;;;11.60;7.90;;;;;;;11.60;70.44;100986.27;105656;1250;83422;-46
2023/05/14 05:28:37;;;;;;;8.50;7.00;;;;;;;11.69;70.41;100988.42;105656;1254;72713;-47
2023/05/14 05:31:05;;;;;;;10.40;7.10;;;;;;;11.78;69.99;100985.88;105657;1253;69912;-48
2023/05/14 05:33:34;;;;;;;10.70;7.80;;;;;;;11.86;69.39;100985.63;105908;1254;69884;-47
2023/05/14 05:36:02;;;;;;;8.90;6.50;;;;;;;11.92;68.95;100982.64;105678;1254;189102;-48
2023/05/14 05:38:31;;;;;;;10.60;6.80;;;;;;;11.99;68.63;100978.04;105870;1251;84329;-46
2023/05/14 05:40:59;;;;;;;9.20;6.90;;;;;;;12.06;68.54;100971.32;105837;1254;74034;-47
2023/05/14 05:43:27;;;;;;;10.90;7.20;;;;;;;12.15;68.48;100968.55;105726;1251;69882;-47
2023/05/14 05:45:56;;;;;;;10.50;7.30;;;;;;;12.24;68.31;100968.74;105984;1251;69971;-49
2023/05/14 05:48:24;;;;;;;10.60;7.30;;;;;;;12.34;68.29;100965.62;105791;1253;73444;-46
2023/05/14 05:50:53;;;;;;;10.90;7.50;;;;;;;12.42;68.09;100965.15;105714;1252;83811;-46
2023/05/14 05:53:21;;;;;;;10.10;6.90;;;;;;;12.49;67.78;100964.89;105817;1251;72672;-46
2023/05/14 05:55:52;;;;;;;10.50;7.20;;;;;;;12.59;67.64;100962.59;105838;1257;69833;-49
2023/05/14 05:58:20;;;;;;;8.30;6.70;;;;;;;12.70;67.41;100965.36;105677;1254;69986;-47
2023/05/14 06:00:49;;;;;;;9.70;7.10;;;;;;;12.80;67.10;100961.51;105943;1253;73547;-46
2023/05/14 06:03:17;;;;;;;11.00;6.80;;;;;;;12.91;67.03;100960.04;105723;1253;83262;-46
2023/05/14 06:05:45;;;;;;;7.70;6.40;;;;;;;13.02;66.63;100963.64;105722;1251;74922;-46
2023/05/14 06:08:15;;;;;;;8.30;5.80;;;;;;;13.14;66.63;100963.54;105828;1252;69992;-46
2023/05/14 06:10:43;;;;;;;7.80;5.70;;;;;;;13.28;66.41;100967.22;105866;1254;69935;-46
2023/05/14 06:13:14;;;;;;;7.60;5.60;;;;;;;13.41;65.86;100966.73;105934;1251;74540;-47
2023/05/14 06:15:42;;;;;;;7.70;5.50;;;;;;;13.51;65.59;100963.85;105881;1253;83306;-47
2023/05/14 06:18:11;;;;;;;8.40;6.20;;;;;;;13.64;65.39;100961.58;105827;1254;73563;-46
2023/05/14 06:20:40;;;;;;;9.60;5.80;;;;;;;13.76;65.05;100958.64;105793;1254;69878;-48
2023/05/14 06:23:10;;;;;;;8.10;5.40;;;;;;;13.88;64.56;100957.23;105858;1250;70095;-47
2023/05/14 06:25:38;;;;;;;7.40;5.30;;;;;;;13.99;64.35;100955.22;105809;1251;74727;-47
2023/05/14 06:28:06;;;;;;;7.30;4.40;;;;;;;14.11;63.87;100950.50;105747;1251;82594;-47
2023/05/14 06:30:34;;;;;;;7.60;5.10;;;;;;;14.23;63.53;100954.02;105707;1259;74332;-47
2023/05/14 06:33:02;;;;;;;6.60;4.80;;;;;;;14.36;63.18;100952.23;105817;1251;69881;-47
2023/05/14 06:35:31;;;;;;;6.50;4.80;;;;;;;14.50;62.91;100948.63;105787;1253;69928;-47
2023/05/14 06:37:59;;;;;;;7.10;4.10;;;;;;;14.64;62.80;100953.27;105844;1253;74421;-47
2023/05/14 06:40:28;;;;;;;5.70;4.10;;;;;;;14.81;62.58;100946.20;105833;1251;83591;-47
2023/05/14 06:42:56;;;;;;;5.90;4.10;;;;;;;14.97;62.18;100944.92;106317;1249;73628;-45
2023/05/14 06:45:24;;;;;;;6.80;3.90;;;;;;;15.10;61.39;100941.85;105836;1254;70021;-47
2023/05/14 06:47:52;;;;;;;5.90;3.60;;;;;;;15.20;61.08;100938.88;105736;1251;69788;-46
2023/05/14 06:50:21;;;;;;;5.30;3.90;;;;;;;15.34;60.96;100939.29;105867;1250;74748;-46
2023/05/14 06:52:49;;;;;;;4.90;3.90;;;;;;;15.48;60.57;100938.98;105769;1253;83501;-48
2023/05/14 06:55:18;;;;;;;5.50;3.50;;;;;;;15.58;60.01;100938.11;105716;1254;73514;-47
2023/05/14 06:57:46;;;;;;;5.20;3.60;;;;;;;15.69;59.88;100934.05;105854;1250;69877;-46
2023/05/14 07:00:15;;;;;;;3.90;3.50;;;;;;;15.83;59.53;100938.48;105745;1250;69960;-48
2023/05/14 07:02:43;;;;;;;7.50;3.60;;;;;;;15.95;59.05;100931.57;106045;1251;74553;-46
2023/05/14 07:05:12;;;;;;;5.60;3.50;;;;;;;16.06;58.69;100930.95;105755;1253;83362;-46
2023/05/14 07:07:40;;;;;;;4.50;3.40;;;;;;;16.18;58.50;100931.44;106010;1254;72796;-45
2023/05/14 07:10:09;;;;;;;4.70;3.40;;;;;;;16.31;58.13;100928.27;105785;1252;69918;-44
2023/05/14 07:12:37;;;;;;;6.30;3.70;;;;;;;16.44;58.18;100928.27;105916;1253;70062;-44
2023/05/14 07:15:06;;;;;;;5.20;3.40;;;;;;;16.59;57.76;100923.45;105830;1251;74451;-48
2023/05/14 07:17:35;;;;;;;6.60;3.30;;;;;;;16.72;57.54;100919.73;105814;1251;83446;-46
2023/05/14 07:20:03;;;;;;;6.00;3.60;;;;;;;16.82;57.26;100916.57;105821;1249;73654;-46
2023/05/14 07:22:32;;;;;;;3.70;3.20;;;;;;;16.88;56.89;100917.47;105817;1251;69791;-48
2023/05/14 07:25:01;;;;;;;3.90;2.80;;;;;;;16.97;56.50;100915.75;105879;1253;70303;-48
2023/05/14 07:27:30;;;;;;;3.50;2.90;;;;;;;17.04;55.84;100911.64;105851;1252;74770;-45
2023/05/14 07:29:58;;;;;;;7.40;3.40;;;;;;;17.11;55.79;100902.05;105914;1254;83247;-47
2023/05/14 07:32:26;;;;;;;5.20;2.70;;;;;;;17.19;55.36;100896.85;105841;1253;73677;-47
2023/05/14 07:34:55;;;;;;;6.10;3.10;;;;;;;17.27;55.11;100892.68;105743;1254;69868;-47
2023/05/14 07:37:24;;;;;;;5.20;2.60;;;;;;;17.40;55.00;100897.98;105922;1250;70002;-47
2023/05/14 07:39:52;;;;;;;5.10;2.40;;;;;;;17.44;53.81;100895.27;105872;1251;75105;-45
2023/05/14 07:42:21;;;;;;;4.20;2.20;;;;;;;17.47;53.51;100896.33;105719;1253;83139;-45
2023/05/14 07:45:04;;;;;;;3.30;2.50;;;;;;;17.51;53.37;100895.20;105855;1253;73219;-45
2023/05/14 07:47:32;;;;;;;4.80;2.90;;;;;;;17.53;53.17;100894.73;105885;1250;69947;-47
2023/05/14 07:50:01;;;;;;;4.10;2.90;;;;;;;17.52;53.19;100897.81;105933;1251;69868;-47
2023/05/14 07:52:29;;;;;;;4.80;2.60;;;;;;;17.51;52.97;100894.31;105790;1251;74935;-48
2023/05/14 07:54:58;;;;;;;4.90;2.70;;;;;;;17.52;52.81;100897.29;105752;1251;82838;-47
2023/05/14 07:57:27;;;;;;;8.10;2.80;;;;;;;17.51;52.68;100898.40;105879;1250;73186;-45
2023/05/14 07:59:55;;;;;;;3.00;2.60;;;;;;;17.50;52.34;100897.91;105845;1251;69955;-45
2023/05/14 08:02:23;;;;;;;3.80;2.60;;;;;;;17.52;52.27;100897.40;105998;1253;69996;-48
2023/05/14 08:04:52;;;;;;;3.20;2.30;;;;;;;17.48;51.62;100895.19;105834;1251;75006;-45
2023/05/14 08:07:21;;;;;;;3.90;2.10;;;;;;;17.39;51.42;100893.91;105873;1253;83332;-47
2023/05/14 08:09:49;;;;;;;5.30;2.40;;;;;;;17.37;51.37;100895.84;105833;1253;72838;-44
2023/05/14 08:12:17;;;;;;;5.20;2.50;;;;;;;17.39;51.41;100898.86;105799;1253;69916;-45
2023/05/14 08:14:46;;;;;;;4.50;2.80;;;;;;;17.42;51.14;100896.65;105725;1250;69899;-46
2023/05/14 08:17:14;;;;;;;6.20;2.80;;;;;;;17.44;50.89;100897.38;105899;1250;73956;-45
2023/05/14 08:19:43;;;;;;;3.40;2.90;;;;;;;17.52;51.01;100895.99;105781;1254;83250;-49
2023/05/14 08:22:11;;;;;;;4.10;3.20;;;;;;;17.63;50.90;100895.04;105887;1255;71764;-47
2023/05/14 08:24:40;;;;;;;3.70;2.70;;;;;;;17.77;50.99;100888.72;105863;1251;69986;-46
2023/05/14 08:27:09;;;;;;;3.40;2.50;;;;;;;17.91;50.55;100880.18;105918;1253;69932;-46
2023/05/14 08:29:37;;;;;;;2.30;2.00;;;;;;;17.96;50.33;100880.54;105804;1253;74714;-45
2023/05/14 08:32:05;;;;;;;3.90;1.90;;;;;;;18.09;50.40;100883.83;105986;1253;82975;-46
2023/05/14 08:34:50;;;;;;;2.20;1.60;;;;;;;18.22;50.01;100887.83;105967;1251;72931;-45
2023/05/14 08:37:19;;;;;;;2.90;1.90;;;;;;;18.33;49.48;100885.37;105829;1251;70402;-46
2023/05/14 08:39:48;;;;;;;2.40;1.50;;;;;;;18.48;49.52;100879.66;105993;1251;70328;-46
2023/05/14 08:42:19;;;;;;;1.60;1.30;;;;;;;18.70;49.42;100878.45;105920;1250;74305;-46
2023/05/14 08:44:49;;;;;;;1.90;1.40;;;;;;;18.93;49.03;100872.94;105722;1251;83762;-45
2023/05/14 08:47:17;;;;;;;2.90;1.10;;;;;;;19.15;48.71;100867.27;105851;1253;72437;-48
2023/05/14 08:49:49;;;;;;;1.60;1.10;;;;;;;19.37;48.62;100869.03;105918;1254;69931;-45
2023/05/14 08:52:19;;;;;;;2.70;1.20;;;;;;;19.56;48.12;100860.46;105807;1251;70199;-46
2023/05/14 08:54:49;;;;;;;3.10;1.30;;;;;;;19.73;47.76;100856.71;105703;1256;74532;-46
2023/05/14 08:57:19;;;;;;;6.10;1.40;;;;;;;19.85;47.55;100855.01;105876;1251;83172;-54
2023/05/14 08:59:48;;;;;;;2.50;1.30;;;;;;;19.91;46.79;100849.60;105785;1253;74132;-47
2023/05/14 09:02:16;;;;;;;1.30;1.20;;;;;;;19.86;46.43;100844.98;105832;1250;69999;-46
2023/05/14 09:04:45;;;;;;;2.10;1.20;;;;;;;19.84;46.21;100846.17;105855;1250;69894;-46
2023/05/14 09:07:14;;;;;;;6.20;1.40;;;;;;;19.86;46.26;100846.27;105738;1250;72739;-49
2023/05/14 09:09:43;;;;;;;4.40;1.50;;;;;;;19.89;46.00;100843.88;107055;1250;83745;-47
2023/05/14 09:12:12;;;;;;;2.00;1.40;;;;;;;19.92;45.64;100842.05;105859;1251;73442;-47
2023/05/14 09:14:40;;;;;;;4.70;1.50;;;;;;;19.97;45.45;100839.13;105696;1253;69935;-46
2023/05/14 09:17:11;;;;;;;3.10;1.60;;;;;;;20.03;45.07;100835.30;105757;1253;69940;-47
2023/05/14 09:19:40;;;;;;;3.20;1.60;;;;;;;20.08;44.46;100831.80;105807;1251;74790;-47
2023/05/14 09:22:12;;;;;;;15.30;2.20;;;;;;;20.16;44.25;100824.83;105806;1251;82906;-48
2023/05/14 09:24:41;;;;;;;4.60;1.90;;;;;;;20.30;43.51;100826.87;105770;1253;73901;-48
2023/05/14 09:27:17;;;;;;;4.50;1.90;;;;;;;20.37;43.16;100819.39;105732;1251;69903;-47
2023/05/14 09:29:46;;;;;;;3.10;1.50;;;;;;;20.47;43.06;100819.26;105803;1251;69846;-48
2023/05/14 09:32:15;;;;;;;4.60;1.60;;;;;;;20.63;42.93;100811.20;105785;1253;74908;-47
2023/05/14 09:34:43;;;;;;;3.30;1.70;;;;;;;20.78;42.54;100809.17;105812;1253;83364;-47
2023/05/14 09:37:12;;;;;;;5.20;1.80;;;;;;;20.85;41.83;100806.20;105769;1251;73466;-47
2023/05/14 09:39:40;;;;;;;3.90;1.80;;;;;;;20.88;41.60;100810.80;105784;1251;69957;-47
2023/05/14 09:42:08;;;;;;;3.50;1.60;;;;;;;20.92;41.20;100809.40;105803;1251;70653;-47
2023/05/14 09:44:37;;;;;;;2.90;2.00;;;;;;;21.06;41.01;100802.89;105905;1251;74975;-48
2023/05/14 09:47:05;;;;;;;4.90;1.70;;;;;;;21.19;40.57;100799.05;105827;1251;82914;-46
2023/05/14 09:49:34;;;;;;;5.20;1.80;;;;;;;21.30;40.40;100788.79;105714;1251;72839;-47
2023/05/14 09:52:05;;;;;;;3.50;1.50;;;;;;;21.41;40.19;100786.59;105751;1249;69948;-46
2023/05/14 09:54:33;;;;;;;3.40;1.80;;;;;;;21.57;40.31;100792.13;105749;1253;69895;-48
2023/05/14 09:57:02;;;;;;;6.50;2.10;;;;;;;21.62;39.77;100784.21;105697;1251;74751;-47
2023/05/14 09:59:30;;;;;;;7.40;1.90;;;;;;;21.47;39.66;100775.66;105725;1253;81674;-46
2023/05/14 10:01:59;;;;;;;2.20;1.80;;;;;;;21.30;39.51;100770.85;105734;1253;73705;-47
2023/05/14 10:04:27;;;;;;;2.20;1.60;;;;;;;21.38;39.61;100765.80;105669;1251;69989;-47
2023/05/14 10:06:55;;;;;;;2.20;1.60;;;;;;;21.54;39.74;100767.26;105624;1255;70110;-47
2023/05/14 10:09:26;;;;;;;2.70;1.80;;;;;;;21.77;39.31;100757.29;105767;1253;74929;-47
2023/05/14 10:11:58;;;;;;;2.80;1.90;;;;;;;21.76;39.11;100755.98;105752;1256;82497;-49
2023/05/14 10:14:32;;;;;;;2.30;1.50;;;;;;;21.62;38.95;100759.33;105779;1253;72688;-48
2023/05/14 10:17:02;;;;;;;2.50;1.70;;;;;;;21.51;38.98;100754.91;105770;1250;69983;-47
2023/05/14 10:19:34;;;;;;;4.90;1.90;;;;;;;21.72;39.22;100749.36;105689;1256;69919;-47
2023/05/14 10:22:07;;;;;;;5.40;1.90;;;;;;;21.93;38.92;100743.20;105767;1250;75114;-46
2023/05/14 10:24:37;;;;;;;3.40;1.60;;;;;;;21.94;38.75;100739.27;105778;1253;83473;-47
2023/05/14 10:27:06;;;;;;;6.90;1.80;;;;;;;21.83;38.64;100741.37;105605;1251;73820;-47
2023/05/14 10:29:36;;;;;;;3.90;2.00;;;;;;;21.56;38.57;100736.15;105780;1251;69985;-47
2023/05/14 10:32:06;;;;;;;3.60;2.00;;;;;;;21.74;38.93;100732.96;105738;1251;69975;-47
2023/05/14 10:34:42;;;;;;;;;;;;;;;22.18;38.62;100727.73;105803;1250;73838;-48
2023/05/14 10:37:16;;;;;;;2.10;1.70;;;;;;;22.45;38.29;100725.94;105872;1251;83205;-49
2023/05/14 10:39:46;;;;;;;5.20;1.50;;;;;;;22.37;37.95;100723.74;105767;1251;73733;-47
2023/05/14 10:42:17;;;;;;;2.90;1.80;;;;;;;22.50;37.93;100719.42;105758;1251;69969;-46
2023/05/14 10:44:55;;;;;;;3.70;1.60;;;;;;;22.93;38.06;100715.73;105762;1253;69996;-48
2023/05/14 10:47:27;;;;;;;4.00;1.70;;;;;;;23.54;37.90;100709.11;105813;1253;73995;-48
2023/05/14 10:50:04;;;;;;;2.40;1.90;;;;;;;23.68;37.02;100715.02;105835;1253;83488;-47
2023/05/14 10:52:33;;;;;;;2.90;1.70;;;;;;;23.29;36.38;100717.81;105757;1250;72790;-48
2023/05/14 10:55:03;;;;;;;;;;;;;;;22.94;36.31;100712.73;105762;1251;69995;-47
2023/05/14 10:57:31;;;;;;;2.40;1.50;;;;;;;22.69;36.53;100705.90;105794;1249;69855;-47
2023/05/14 11:00:00;;;;;;;2.20;1.70;;;;;;;22.65;36.91;100703.04;105762;1251;73979;-47
2023/05/14 11:02:32;;;;;;;4.00;1.70;;;;;;;22.97;36.90;100704.87;105747;1253;83509;-48
2023/05/14 11:05:04;;;;;;;1.80;1.20;;;;;;;23.58;36.95;100699.83;105831;1250;73721;-48
2023/05/14 11:07:40;;;;;;;3.80;1.70;;;;;;;24.01;36.41;100695.37;105728;1253;70450;-47
2023/05/14 11:10:10;;;;;;;2.30;1.50;;;;;;;24.33;35.51;100701.80;105751;1251;70510;-47
2023/05/14 11:12:39;;;;;;;;;;;;;;;24.38;35.43;100697.07;105794;1253;74870;-47
2023/05/14 11:15:10;;;;;;;2.60;1.80;;;;;;;24.06;34.83;100693.53;105793;1251;83382;-48
2023/05/14 11:17:40;;;;;;;4.20;1.60;;;;;;;23.66;34.76;100696.48;105723;1251;73768;-47
2023/05/14 11:20:09;;;;;;;2.40;1.60;;;;;;;23.30;34.86;100694.56;105622;1253;69982;-48
2023/05/14 11:22:39;;;;;;;3.10;1.50;;;;;;;23.07;35.22;100689.74;105734;1253;69998;-48
2023/05/14 11:25:08;;;;;;;;;;;;;;;22.98;35.38;100684.46;105858;1253;73944;-47
2023/05/14 11:27:37;;;;;;;2.80;1.40;;;;;;;22.84;35.13;100684.02;105820;1251;83399;-47